SKU176 SCIE-SCEL
Flight info
| Callsign | SKU176 |
|---|---|
| Flight time | 0h 41m |
| Altitude | 26000 |
| Route | LODOS4N LODOS UQ808 EROLO EROLO2D |
| Aircraft | A21N/M-SDE2E3FGHIRWXY/LB1 |
Departure
| Time | 2026-05-08 23:33 |
|---|---|
| Airport | Carriel Sur International Airport (SCIE) |
Arrival
| Time | 2026-05-09 00:15 |
|---|---|
| Airport | Comodoro Arturo Merino Benítez International Airport (SCEL) |
| Time | Latitude | Longitude | Altitude | Speed | Heading |
|---|---|---|---|---|---|
| 2026-05-08 23:21 | -36.77602 | -73.06033 | 65 ft | 0 kts | 170° |
| 2026-05-08 23:25 | -36.77588 | -73.06036 | 60 ft | 4 kts | 173° |
| 2026-05-08 23:25 | -36.77562 | -73.06037 | 45 ft | 4 kts | 189° |
| 2026-05-08 23:26 | -36.77541 | -73.06027 | 67 ft | 4 kts | 240° |
| 2026-05-08 23:26 | -36.77538 | -73.06016 | 64 ft | 1 kts | 272° |
| 2026-05-08 23:28 | -36.77537 | -73.06035 | 65 ft | 4 kts | 274° |
| 2026-05-08 23:28 | -36.77532 | -73.06077 | 66 ft | 6 kts | 284° |
| 2026-05-08 23:28 | -36.77516 | -73.06135 | 62 ft | 8 kts | 292° |
| 2026-05-08 23:29 | -36.77469 | -73.06187 | 57 ft | 11 kts | 352° |
| 2026-05-08 23:29 | -36.77395 | -73.06151 | 57 ft | 13 kts | 26° |
| 2026-05-08 23:29 | -36.77309 | -73.06100 | 66 ft | 15 kts | 25° |
| 2026-05-08 23:29 | -36.77210 | -73.06043 | 66 ft | 16 kts | 24° |
| 2026-05-08 23:30 | -36.77100 | -73.05980 | 58 ft | 18 kts | 25° |
| 2026-05-08 23:30 | -36.76981 | -73.05910 | 60 ft | 20 kts | 25° |
| 2026-05-08 23:30 | -36.76851 | -73.05834 | 60 ft | 21 kts | 25° |
| 2026-05-08 23:30 | -36.76711 | -73.05753 | 58 ft | 23 kts | 25° |
| 2026-05-08 23:31 | -36.76563 | -73.05666 | 59 ft | 24 kts | 25° |
| 2026-05-08 23:31 | -36.76464 | -73.05608 | 63 ft | 11 kts | 25° |
| 2026-05-08 23:31 | -36.76385 | -73.05594 | 63 ft | 13 kts | 339° |
| 2026-05-08 23:31 | -36.76339 | -73.05655 | 63 ft | 11 kts | 297° |
| 2026-05-08 23:32 | -36.76318 | -73.05743 | 68 ft | 8 kts | 261° |
| 2026-05-08 23:32 | -36.76358 | -73.05799 | 72 ft | 9 kts | 204° |
| 2026-05-08 23:32 | -36.76464 | -73.05859 | 71 ft | 41 kts | 204° |
| 2026-05-08 23:32 | -36.76933 | -73.06130 | 68 ft | 107 kts | 205° |
| 2026-05-08 23:33 | -36.77773 | -73.06626 | 102 ft | 154 kts | 205° |
| 2026-05-08 23:33 | -36.78746 | -73.07256 | 553 ft | 157 kts | 201° |
| 2026-05-08 23:33 | -36.79738 | -73.07797 | 1202 ft | 153 kts | 199° |
| 2026-05-08 23:33 | -36.80760 | -73.07973 | 1767 ft | 152 kts | 167° |
| 2026-05-08 23:34 | -36.81723 | -73.07355 | 2173 ft | 166 kts | 135° |
| 2026-05-08 23:34 | -36.82234 | -73.05985 | 2700 ft | 191 kts | 100° |
| 2026-05-08 23:34 | -36.82086 | -73.04241 | 3323 ft | 215 kts | 84° |
| 2026-05-08 23:34 | -36.81813 | -73.02278 | 3810 ft | 242 kts | 84° |
| 2026-05-08 23:35 | -36.81533 | -73.00143 | 4569 ft | 255 kts | 83° |
| 2026-05-08 23:35 | -36.81244 | -72.97924 | 5475 ft | 262 kts | 84° |
| 2026-05-08 23:35 | -36.80954 | -72.95659 | 6417 ft | 266 kts | 84° |
| 2026-05-08 23:35 | -36.80595 | -72.93367 | 7320 ft | 273 kts | 76° |
| 2026-05-08 23:36 | -36.79737 | -72.91246 | 8168 ft | 286 kts | 53° |
| 2026-05-08 23:36 | -36.78188 | -72.89571 | 9066 ft | 296 kts | 40° |
| 2026-05-08 23:36 | -36.76531 | -72.88063 | 9957 ft | 303 kts | 40° |
| 2026-05-08 23:36 | -36.74793 | -72.86453 | 10551 ft | 321 kts | 41° |
| 2026-05-08 23:37 | -36.72949 | -72.84701 | 10922 ft | 345 kts | 42° |
| 2026-05-08 23:37 | -36.70982 | -72.82806 | 11273 ft | 368 kts | 42° |
| 2026-05-08 23:37 | -36.68908 | -72.80795 | 11784 ft | 384 kts | 42° |
| 2026-05-08 23:37 | -36.66762 | -72.78706 | 12372 ft | 397 kts | 42° |
| 2026-05-08 23:38 | -36.64562 | -72.76567 | 13087 ft | 406 kts | 43° |
| 2026-05-08 23:38 | -36.62311 | -72.74376 | 13784 ft | 415 kts | 43° |
| 2026-05-08 23:38 | -36.60014 | -72.72140 | 14437 ft | 423 kts | 43° |
| 2026-05-08 23:38 | -36.57679 | -72.69867 | 15098 ft | 429 kts | 43° |
| 2026-05-08 23:39 | -36.55311 | -72.67563 | 15737 ft | 436 kts | 44° |
| 2026-05-08 23:39 | -36.52932 | -72.65250 | 16358 ft | 443 kts | 44° |
| 2026-05-08 23:39 | -36.50487 | -72.62873 | 16999 ft | 449 kts | 44° |
| 2026-05-08 23:39 | -36.48003 | -72.60460 | 17633 ft | 456 kts | 44° |
| 2026-05-08 23:40 | -36.45479 | -72.58014 | 18242 ft | 465 kts | 44° |
| 2026-05-08 23:40 | -36.42902 | -72.55519 | 18788 ft | 472 kts | 44° |
| 2026-05-08 23:40 | -36.40299 | -72.53000 | 19335 ft | 477 kts | 44° |
| 2026-05-08 23:40 | -36.37665 | -72.50452 | 19925 ft | 481 kts | 44° |
| 2026-05-08 23:41 | -36.35016 | -72.47890 | 20512 ft | 485 kts | 44° |
| 2026-05-08 23:41 | -36.32344 | -72.45308 | 21087 ft | 489 kts | 44° |
| 2026-05-08 23:41 | -36.29648 | -72.42712 | 21663 ft | 493 kts | 44° |
| 2026-05-08 23:41 | -36.26931 | -72.40093 | 22237 ft | 497 kts | 44° |
| 2026-05-08 23:42 | -36.24184 | -72.37448 | 22826 ft | 501 kts | 44° |
| 2026-05-08 23:42 | -36.21430 | -72.34794 | 23554 ft | 501 kts | 44° |
| 2026-05-08 23:42 | -36.18676 | -72.32151 | 24231 ft | 500 kts | 44° |
| 2026-05-08 23:42 | -36.15926 | -72.29513 | 24871 ft | 499 kts | 44° |
| 2026-05-08 23:43 | -36.13226 | -72.26910 | 25429 ft | 499 kts | 44° |
| 2026-05-08 23:43 | -36.10481 | -72.24256 | 25983 ft | 502 kts | 45° |
| 2026-05-08 23:43 | -36.07727 | -72.21600 | 26200 ft | 499 kts | 45° |
| 2026-05-08 23:43 | -36.04982 | -72.19045 | 26229 ft | 493 kts | 40° |
| 2026-05-08 23:44 | -36.01980 | -72.16953 | 26224 ft | 499 kts | 29° |
| 2026-05-08 23:44 | -35.98826 | -72.15143 | 26221 ft | 499 kts | 28° |
| 2026-05-08 23:44 | -35.95657 | -72.13386 | 26211 ft | 500 kts | 27° |
| 2026-05-08 23:44 | -35.92471 | -72.11624 | 26207 ft | 500 kts | 28° |
| 2026-05-08 23:45 | -35.89298 | -72.09855 | 26203 ft | 500 kts | 28° |
| 2026-05-08 23:45 | -35.86137 | -72.08076 | 26192 ft | 499 kts | 28° |
| 2026-05-08 23:45 | -35.82989 | -72.06290 | 26199 ft | 499 kts | 28° |
| 2026-05-08 23:45 | -35.79838 | -72.04481 | 26204 ft | 498 kts | 28° |
| 2026-05-08 23:46 | -35.76730 | -72.02702 | 26201 ft | 499 kts | 28° |
| 2026-05-08 23:46 | -35.73579 | -72.00914 | 26200 ft | 499 kts | 28° |
| 2026-05-08 23:46 | -35.70429 | -71.99131 | 26204 ft | 499 kts | 28° |
| 2026-05-08 23:46 | -35.67264 | -71.97351 | 26197 ft | 499 kts | 27° |
| 2026-05-08 23:47 | -35.64108 | -71.95593 | 26199 ft | 499 kts | 27° |
| 2026-05-08 23:47 | -35.60942 | -71.93839 | 26175 ft | 498 kts | 27° |
| 2026-05-08 23:47 | -35.57784 | -71.92087 | 26176 ft | 498 kts | 27° |
| 2026-05-08 23:47 | -35.54634 | -71.90331 | 26241 ft | 497 kts | 27° |
| 2026-05-08 23:48 | -35.51473 | -71.88555 | 26221 ft | 501 kts | 27° |
| 2026-05-08 23:48 | -35.48295 | -71.86780 | 26209 ft | 502 kts | 27° |
| 2026-05-08 23:48 | -35.45114 | -71.85005 | 26198 ft | 501 kts | 27° |
| 2026-05-08 23:48 | -35.41933 | -71.83232 | 26193 ft | 502 kts | 27° |
| 2026-05-08 23:49 | -35.38755 | -71.81466 | 26193 ft | 502 kts | 27° |
| 2026-05-08 23:49 | -35.35613 | -71.79721 | 26192 ft | 502 kts | 27° |
| 2026-05-08 23:49 | -35.32439 | -71.77954 | 26176 ft | 500 kts | 27° |
| 2026-05-08 23:49 | -35.29265 | -71.76186 | 26184 ft | 500 kts | 27° |
| 2026-05-08 23:50 | -35.26096 | -71.74423 | 26185 ft | 500 kts | 27° |
| 2026-05-08 23:50 | -35.22920 | -71.72660 | 26182 ft | 500 kts | 27° |
| 2026-05-08 23:50 | -35.19747 | -71.70900 | 26185 ft | 500 kts | 27° |
| 2026-05-08 23:50 | -35.16576 | -71.69145 | 26183 ft | 500 kts | 27° |
| 2026-05-08 23:51 | -35.13402 | -71.67387 | 26177 ft | 500 kts | 27° |
| 2026-05-08 23:51 | -35.10237 | -71.65632 | 26177 ft | 500 kts | 27° |
| 2026-05-08 23:51 | -35.07064 | -71.63877 | 26181 ft | 500 kts | 27° |
| 2026-05-08 23:51 | -35.03894 | -71.62125 | 26179 ft | 500 kts | 27° |
| 2026-05-08 23:52 | -35.00721 | -71.60370 | 26174 ft | 500 kts | 27° |
| 2026-05-08 23:52 | -34.97551 | -71.58623 | 26174 ft | 500 kts | 27° |
| 2026-05-08 23:52 | -34.94419 | -71.56899 | 26173 ft | 500 kts | 27° |
| 2026-05-08 23:52 | -34.91253 | -71.55158 | 26224 ft | 501 kts | 27° |
| 2026-05-08 23:53 | -34.88057 | -71.53400 | 26190 ft | 506 kts | 27° |
| 2026-05-08 23:53 | -34.84830 | -71.51623 | 26170 ft | 514 kts | 27° |
| 2026-05-08 23:53 | -34.81558 | -71.49825 | 26151 ft | 516 kts | 26° |
| 2026-05-08 23:53 | -34.78285 | -71.48030 | 26162 ft | 515 kts | 26° |
| 2026-05-08 23:54 | -34.75021 | -71.46239 | 26163 ft | 514 kts | 26° |
| 2026-05-08 23:54 | -34.71758 | -71.44447 | 26153 ft | 514 kts | 26° |
| 2026-05-08 23:54 | -34.68498 | -71.42663 | 26165 ft | 514 kts | 26° |
| 2026-05-08 23:55 | -34.61921 | -71.39234 | 26163 ft | 515 kts | 24° |
| 2026-05-08 23:55 | -34.58604 | -71.37593 | 26159 ft | 515 kts | 23° |
| 2026-05-08 23:55 | -34.55278 | -71.35958 | 26158 ft | 515 kts | 23° |
| 2026-05-08 23:55 | -34.51966 | -71.34329 | 26149 ft | 513 kts | 23° |
| 2026-05-08 23:56 | -34.48656 | -71.32700 | 26152 ft | 513 kts | 23° |
| 2026-05-08 23:56 | -34.45342 | -71.31074 | 26157 ft | 513 kts | 23° |
| 2026-05-08 23:56 | -34.42077 | -71.29476 | 26157 ft | 513 kts | 23° |
| 2026-05-08 23:56 | -34.38763 | -71.27850 | 26152 ft | 514 kts | 23° |
| 2026-05-08 23:57 | -34.35443 | -71.26219 | 26145 ft | 513 kts | 23° |
| 2026-05-08 23:57 | -34.32131 | -71.24595 | 26147 ft | 513 kts | 23° |
| 2026-05-08 23:57 | -34.28819 | -71.22974 | 26149 ft | 513 kts | 23° |
| 2026-05-08 23:57 | -34.25517 | -71.21358 | 26134 ft | 511 kts | 23° |
| 2026-05-08 23:58 | -34.22228 | -71.19752 | 26077 ft | 506 kts | 23° |
| 2026-05-08 23:58 | -34.18964 | -71.18158 | 25240 ft | 510 kts | 23° |
| 2026-05-08 23:58 | -34.15624 | -71.16526 | 24106 ft | 524 kts | 22° |
| 2026-05-08 23:58 | -34.12208 | -71.14864 | 23023 ft | 531 kts | 22° |
| 2026-05-08 23:59 | -34.08808 | -71.13212 | 22509 ft | 523 kts | 22° |
| 2026-05-08 23:59 | -34.05465 | -71.11583 | 21933 ft | 515 kts | 22° |
| 2026-05-08 23:59 | -34.02160 | -71.09976 | 21324 ft | 509 kts | 22° |
| 2026-05-08 23:59 | -33.98886 | -71.08385 | 20671 ft | 505 kts | 22° |
| 2026-05-09 00:00 | -33.95651 | -71.06814 | 20166 ft | 497 kts | 22° |
| 2026-05-09 00:00 | -33.92450 | -71.05258 | 19523 ft | 495 kts | 22° |
| 2026-05-09 00:00 | -33.89264 | -71.03719 | 19011 ft | 490 kts | 21° |
| 2026-05-09 00:00 | -33.86154 | -71.02213 | 18445 ft | 487 kts | 22° |
| 2026-05-09 00:01 | -33.83019 | -71.00698 | 17859 ft | 481 kts | 21° |
| 2026-05-09 00:01 | -33.79942 | -70.99211 | 17337 ft | 471 kts | 21° |
| 2026-05-09 00:01 | -33.76908 | -70.97744 | 16664 ft | 465 kts | 21° |
| 2026-05-09 00:01 | -33.73948 | -70.96314 | 16024 ft | 452 kts | 21° |
| 2026-05-09 00:02 | -33.71056 | -70.94919 | 15380 ft | 443 kts | 21° |
| 2026-05-09 00:02 | -33.68221 | -70.93543 | 14618 ft | 435 kts | 21° |
| 2026-05-09 00:02 | -33.65446 | -70.92198 | 13984 ft | 424 kts | 21° |
| 2026-05-09 00:02 | -33.62736 | -70.90894 | 13184 ft | 416 kts | 21° |
| 2026-05-09 00:03 | -33.60086 | -70.89624 | 12632 ft | 403 kts | 21° |
| 2026-05-09 00:03 | -33.57528 | -70.88392 | 12153 ft | 390 kts | 22° |
| 2026-05-09 00:03 | -33.55189 | -70.86953 | 11722 ft | 375 kts | 30° |
| 2026-05-09 00:03 | -33.53003 | -70.85351 | 11301 ft | 361 kts | 31° |
| 2026-05-09 00:04 | -33.50909 | -70.83790 | 10928 ft | 347 kts | 31° |
| 2026-05-09 00:04 | -33.48904 | -70.82302 | 10640 ft | 331 kts | 31° |
| 2026-05-09 00:04 | -33.46986 | -70.80884 | 10353 ft | 317 kts | 31° |
| 2026-05-09 00:04 | -33.45053 | -70.79749 | 10125 ft | 303 kts | 14° |
| 2026-05-09 00:05 | -33.43015 | -70.79555 | 9852 ft | 292 kts | 351° |
| 2026-05-09 00:05 | -33.41132 | -70.80430 | 9353 ft | 290 kts | 327° |
| 2026-05-09 00:05 | -33.39489 | -70.81803 | 8965 ft | 288 kts | 323° |
| 2026-05-09 00:05 | -33.37876 | -70.83207 | 8616 ft | 284 kts | 323° |
| 2026-05-09 00:06 | -33.36282 | -70.84555 | 8339 ft | 278 kts | 324° |
| 2026-05-09 00:06 | -33.34696 | -70.85864 | 7996 ft | 274 kts | 325° |
| 2026-05-09 00:06 | -33.33135 | -70.87126 | 7656 ft | 268 kts | 326° |
| 2026-05-09 00:06 | -33.31606 | -70.88357 | 7329 ft | 262 kts | 325° |
| 2026-05-09 00:07 | -33.30106 | -70.89568 | 7008 ft | 258 kts | 324° |
| 2026-05-09 00:07 | -33.28639 | -70.90752 | 6797 ft | 248 kts | 325° |
| 2026-05-09 00:07 | -33.27266 | -70.91858 | 6771 ft | 227 kts | 325° |
| 2026-05-09 00:07 | -33.26021 | -70.92839 | 6762 ft | 206 kts | 331° |
| 2026-05-09 00:08 | -33.24674 | -70.93306 | 6515 ft | 199 kts | 353° |
| 2026-05-09 00:08 | -33.23316 | -70.93259 | 6247 ft | 192 kts | 9° |
| 2026-05-09 00:08 | -33.22085 | -70.92787 | 6011 ft | 186 kts | 25° |
| 2026-05-09 00:08 | -33.21037 | -70.91938 | 5786 ft | 177 kts | 41° |
| 2026-05-09 00:09 | -33.20267 | -70.90867 | 5761 ft | 168 kts | 58° |
| 2026-05-09 00:09 | -33.19778 | -70.89607 | 5789 ft | 168 kts | 72° |
| 2026-05-09 00:09 | -33.19551 | -70.88241 | 5813 ft | 168 kts | 87° |
| 2026-05-09 00:09 | -33.19639 | -70.86857 | 5791 ft | 166 kts | 100° |
| 2026-05-09 00:10 | -33.20011 | -70.85557 | 5547 ft | 165 kts | 115° |
| 2026-05-09 00:10 | -33.20604 | -70.84385 | 5269 ft | 164 kts | 126° |
| 2026-05-09 00:10 | -33.21351 | -70.83363 | 5000 ft | 163 kts | 135° |
| 2026-05-09 00:10 | -33.22217 | -70.82505 | 4734 ft | 161 kts | 145° |
| 2026-05-09 00:11 | -33.22849 | -70.82043 | 4568 ft | 160 kts | 151° |
| 2026-05-09 00:11 | -33.23869 | -70.81513 | 4306 ft | 160 kts | 161° |
| 2026-05-09 00:11 | -33.24942 | -70.81198 | 4034 ft | 158 kts | 171° |
| 2026-05-09 00:11 | -33.26032 | -70.81085 | 3822 ft | 157 kts | 178° |
| 2026-05-09 00:12 | -33.27109 | -70.81008 | 3557 ft | 148 kts | 176° |
| 2026-05-09 00:12 | -33.28082 | -70.80919 | 3299 ft | 137 kts | 176° |
| 2026-05-09 00:12 | -33.29025 | -70.80838 | 3161 ft | 136 kts | 176° |
| 2026-05-09 00:12 | -33.29970 | -70.80763 | 3075 ft | 136 kts | 179° |
| 2026-05-09 00:13 | -33.30907 | -70.80723 | 2875 ft | 134 kts | 179° |
| 2026-05-09 00:13 | -33.31834 | -70.80672 | 2685 ft | 133 kts | 179° |
| 2026-05-09 00:13 | -33.32761 | -70.80624 | 2490 ft | 133 kts | 179° |
| 2026-05-09 00:13 | -33.33687 | -70.80575 | 2300 ft | 133 kts | 179° |
| 2026-05-09 00:14 | -33.34611 | -70.80526 | 2115 ft | 133 kts | 179° |
| 2026-05-09 00:14 | -33.35528 | -70.80480 | 1923 ft | 132 kts | 180° |
| 2026-05-09 00:14 | -33.36445 | -70.80410 | 1733 ft | 132 kts | 179° |
| 2026-05-09 00:14 | -33.37351 | -70.80364 | 1591 ft | 131 kts | 179° |
| 2026-05-09 00:15 | -33.38130 | -70.80325 | 1577 ft | 85 kts | 178° |
| 2026-05-09 00:15 | -33.38526 | -70.80306 | 1578 ft | 37 kts | 178° |
| 2026-05-09 00:15 | -33.38785 | -70.80293 | 1580 ft | 37 kts | 176° |
| 2026-05-09 00:15 | -33.39040 | -70.80274 | 1579 ft | 32 kts | 178° |
| 2026-05-09 00:16 | -33.39197 | -70.80260 | 1578 ft | 17 kts | 168° |
| 2026-05-09 00:16 | -33.39312 | -70.80209 | 1577 ft | 18 kts | 152° |
| 2026-05-09 00:16 | -33.39423 | -70.80133 | 1574 ft | 19 kts | 145° |
| 2026-05-09 00:16 | -33.39492 | -70.80074 | 1572 ft | 10 kts | 137° |
| 2026-05-09 00:17 | -33.39528 | -70.79994 | 1571 ft | 12 kts | 102° |
| 2026-05-09 00:17 | -33.39530 | -70.79912 | 1570 ft | 8 kts | 84° |
| 2026-05-09 00:17 | -33.39525 | -70.79840 | 1570 ft | 10 kts | 90° |
| 2026-05-09 00:17 | -33.39524 | -70.79754 | 1570 ft | 11 kts | 88° |
| 2026-05-09 00:18 | -33.39523 | -70.79719 | 1570 ft | 1 kts | 97° |
| 2026-05-09 00:18 | -33.39531 | -70.79707 | 1570 ft | 3 kts | 143° |
| 2026-05-09 00:18 | -33.39559 | -70.79699 | 1570 ft | 5 kts | 177° |
| 2026-05-09 00:18 | -33.39590 | -70.79697 | 1570 ft | 3 kts | 176° |
| 2026-05-09 00:19 | -33.39598 | -70.79697 | 1570 ft | 2 kts | 178° |
| 2026-05-09 00:19 | -33.39602 | -70.79696 | 1570 ft | 0 kts | 178° |